Welcome to our new website - Welkom op onze vernieuwde website - Bienvenue sur notre nouveau site web - Willkommen auf unserer neuen Website
Check our progress frequently. Prüfen Sie unsere Fortschritte regelmäßig. Consultez notre progression fréquemment. Komt u straks nog eens

KNMI Weersverwachting is alleen beschikbaar in de Nederlandse Taal, Ongeacht welke taal u kiest.
KNMI weather forecast is only available in the Dutch language, No matter what language you choose.







Meteo Oudkarspel - De weer weet site voor Langedijk

Blijf op de hoogte van het actuele weer, Keep up to date with the current weather.



Lokaal brandgevaar
CBI


Regionaal natuur brand risico: Meer informatie


Mijn Webcam 1 Meer informatie My webcam


Mijn Webcam 2 Meer informatie My webcam 2


Onweer radar Meer informatie blitzortung!


Regen radar Meer informatie rain snow radar


Bezoek onze andere website:

Template - Davis WeatherLink Version
Vantage Veu

Template - Meteotemplate

Template - HomeWeatherStation

PDøROK Multimedia

Meteo Broek Op Langedijk

Lief LangedijkLief Langedijk

Dé fietsenmaker van Langedijk en omstrekenAxel Noort dé fietsenmaker

Ijsvereniging Volharding

Meteo Tuitjenhorn

Meteo Delfzijl

Meteo SauwerdMeteo Sauwerd

WeerstationMeteo Sauwerd

Weerstation Noordbergum

Weerstation ParkstadWeerstation Parkstad

Norderney



Het weer levert geen direct gevaar op.    Er zijn geen waarschuwingen afgegeven.

METAR rapporten vliegvelden

   
EHKD - De Kooy (navy), Netherlands
Afstand tot: N 23 km
Gewijzigd: 18-Aug-2019 13:28
Bewolking  
Bewolking  
   Wind: ZW 25.9 km/h
Wind: ZW 25.9 km/h
Temperatuur: 18°C
Dauwpunt: 14°C
Vochtigheid: 78%
Barometer: 1003 hPa
Bewolking: Bewolking
Zicht: meer dan 10 km
Bewolking: Licht bewolkt 3400 ft,
Grotendeels bewolkt 5300 ft,
Bewolking 6800 ft
EHKD 181128Z AUTO 22014KT 190V250 9999 FEW034 BKN053 OVC068 18/14 Q1003 BLU 22014KT 9999 SCT035 BKN050 TEMPO SCT015 BKN035
EHAM - Amsterdam/Schiph, Netherlands
Afstand tot: Z 44 km
Gewijzigd: 18-Aug-2019 13:25
Grotendeels bewolkt  
Grotendeels bewolkt  
   Wind: ZW 11.1 km/h
Wind: ZW 11.1 km/h
Temperatuur: 17°C
Dauwpunt: 14°C
Vochtigheid: 83%
Barometer: 1004 hPa
Bewolking: Grotendeels bewolkt
Zicht: meer dan 10 km
Bewolking: Licht bewolkt 1000 ft,
Gedeeltelijk bewolkt 2200 ft,
Grotendeels bewolkt 3000 ft
EHAM 181125Z 23006KT 190V270 9999 FEW010 SCT022 BKN030 17/14 Q1004 NOSIG
EHQE - Hoorn-A Sea, Netherlands
Afstand tot: WNW 50 km
Gewijzigd: 18-Aug-2019 13:25
Grotendeels bewolkt  
Grotendeels bewolkt  
   Wind: ZZW 33.3 km/h
Wind: ZZW 33.3 km/h
Temperatuur: 18°C
Dauwpunt: 14°C
Vochtigheid: 78%
Barometer: 1003 hPa
Bewolking: Grotendeels bewolkt
Zicht: meer dan 10 km
Bewolking: Licht bewolkt 1300 ft,
Gedeeltelijk bewolkt 3600 ft,
Grotendeels bewolkt 4300 ft
EHQE 181125Z AUTO 20018KT 9999 FEW013 SCT036 BKN043 18/14 Q1003 W///H///
EHVL - Vlieland Island, Netherlands
Afstand tot: N 58 km
Gewijzigd: 18-Aug-2019 13:25
Bewolking  
Bewolking  
   Wind: ZW 27.8 km/h
Wind: ZW 27.8 km/h
Temperatuur: 18°C
Dauwpunt: 14°C
Vochtigheid: 78%
Barometer: 1003 hPa
Bewolking: Bewolking
Zicht: meer dan 10 km
Bewolking: Licht bewolkt 1600 ft,
Bewolking 4200 ft
EHVL 181125Z AUTO 22015KT 9999 FEW016 OVC042 18/14 Q1003 BLU
EHLW - Leeuwarden Rnlaf, Netherlands
Afstand tot: NO 85 km
Gewijzigd: 18-Aug-2019 13:29
Grotendeels bewolkt  
Grotendeels bewolkt  
   Wind: ZZW 22.2 km/h
Wind: ZZW 22.2 km/h
Temperatuur: 18°C
Dauwpunt: 15°C
Vochtigheid: 83%
Barometer: 1003 hPa
Bewolking: Grotendeels bewolkt
Zicht: meer dan 10 km
Bewolking: Gedeeltelijk bewolkt 1500 ft,
Grotendeels bewolkt 1900 ft,
Grotendeels bewolkt 2400 ft
EHLW 181129Z AUTO 21012KT 160V240 9999 SCT015 BKN019 BKN024 18/15 Q1003 WHT
EHRD - Rotterdam Airpor, Netherlands
Afstand tot: ZZW 88 km
Gewijzigd: 18-Aug-2019 13:25
Bewolking  
Bewolking  
   Wind: WZW 16.7 km/h
Wind: WZW 16.7 km/h
Temperatuur: 18°C
Dauwpunt: 15°C
Vochtigheid: 83%
Barometer: 1004 hPa
Bewolking: Bewolking
Zicht: meer dan 10 km
Bewolking: Gedeeltelijk bewolkt 1600 ft,
Gedeeltelijk bewolkt 3300 ft,
Bewolking 3700 ft
EHRD 181125Z AUTO 24009KT 9999 SCT016 SCT033 OVC037 18/15 Q1004 NOSIG
EHKV - K14-Fa-1c Sea, Netherlands
Afstand tot: NW 100 km
Gewijzigd: 18-Aug-2019 13:25
Gedeeltelijk bewolkt  
Gedeeltelijk bewolkt  
   Wind: ZW 29.6 km/h
Wind: ZW 29.6 km/h
Temperatuur: 17°C
Dauwpunt: 14°C
Vochtigheid: 83%
Barometer: 1002 hPa
Bewolking: Gedeeltelijk bewolkt
Zicht: meer dan 10 km
Bewolking: Gedeeltelijk bewolkt 1500 ft,
Gedeeltelijk bewolkt 4000 ft
EHKV 181125Z AUTO 22016KT 9999 SCT015 SCT040 17/14 Q1002 W///H///
EHMG - L9-Ff-1 Sea, Netherlands
Afstand tot: N 101 km
Gewijzigd: 18-Aug-2019 13:25
Gedeeltelijk bewolkt  
Gedeeltelijk bewolkt  
   Wind: WZW 24.1 km/h
Wind: WZW 24.1 km/h
Temperatuur: 18°C
Dauwpunt: 13°C
Vochtigheid: 73%
Barometer: 1003 hPa
Bewolking: Gedeeltelijk bewolkt
Zicht: meer dan 10 km
Bewolking: Licht bewolkt 2100 ft,
Gedeeltelijk bewolkt 3700 ft
EHMG 181125Z AUTO 24013KT 9999 FEW021 SCT037 18/13 Q1003 W///H///
EHDL - Deelen Rnlafb, Netherlands
Afstand tot: ZO 102 km
Gewijzigd: 18-Aug-2019 13:25
Grotendeels bewolkt  
Grotendeels bewolkt  
   Wind: ZW 7.4 km/h
Wind: ZW 7.4 km/h
Temperatuur: 17°C
Dauwpunt: 15°C
Vochtigheid: 88%
Barometer: 1004 hPa
Bewolking: Grotendeels bewolkt
Zicht: meer dan 10 km
Bewolking: Gedeeltelijk bewolkt 700 ft,
Grotendeels bewolkt 800 ft,
Grotendeels bewolkt 900 ft
EHDL 181125Z AUTO 22004KT 140V260 9999 SCT007 BKN008 BKN009 17/15 Q1004 GRN
EHPG - P11-B Sea, Netherlands
Afstand tot: WZW 106 km
Gewijzigd: 18-Aug-2019 13:25
Gedeeltelijk bewolkt  
Gedeeltelijk bewolkt  
   Wind: ZZW 31.5 km/h
Wind: ZZW 31.5 km/h
Temperatuur: 17°C
Dauwpunt: 13°C
Vochtigheid: 77%
Barometer: 1003 hPa
Bewolking: Gedeeltelijk bewolkt
Zicht: meer dan 10 km
Bewolking: Gedeeltelijk bewolkt
EHPG 181125Z AUTO 21017KT 9999 NSC 17/13 Q1003 W///H///
EHMA - Awg-1 Sea, Netherlands
Afstand tot: NO 116 km
Gewijzigd: 18-Aug-2019 13:25
Bewolking  
Bewolking  
   Wind: ZZW 22.2 km/h
Wind: ZZW 22.2 km/h
Temperatuur: 17°C
Dauwpunt: 14°C
Vochtigheid: 83%
Barometer: 1003 hPa
Bewolking: Bewolking
Bewolking: Licht bewolkt 800 ft,
Gedeeltelijk bewolkt 2800 ft,
Bewolking 4800 ft
EHMA 181125Z AUTO 20012KT //// // FEW008 SCT028 OVC048 17/14 Q1003 RE// W///H///
EHSC - Goeree Le Sea, Netherlands
Afstand tot: ZW 116 km
Gewijzigd: 18-Aug-2019 13:25
  
  
   Wind: WZW 24.1 km/h
Wind: WZW 24.1 km/h
Temperatuur: 17°C
Dauwpunt: 13°C
Vochtigheid: 77%
Barometer: 1004 hPa
Zicht: meer dan 10 km
EHSC 181125Z AUTO 24013KT 9999 ///////// 17/13 Q1004 W20/H7
EHJR - K13-A Sea, Netherlands
Afstand tot: WNW 120 km
Gewijzigd: 18-Aug-2019 13:25
  
  
   Wind: ZW 27.8 km/h
Wind: ZW 27.8 km/h
Temperatuur: 17°C
Dauwpunt: 14°C
Vochtigheid: 83%
Barometer: 1005 hPa
EHJR 181125Z AUTO 23015KT //// // ///////// 17/14 Q1005 RE// W18/H10
EHGG - Groningen/Eelde, Netherlands
Afstand tot: ONO 126 km
Gewijzigd: 18-Aug-2019 13:25
Gedeeltelijk bewolkt  
Gedeeltelijk bewolkt  
   Wind: ZZW 16.7 km/h
Wind: ZZW 16.7 km/h
Temperatuur: 18°C
Dauwpunt: 15°C
Vochtigheid: 83%
Barometer: 1003 hPa
Bewolking: Gedeeltelijk bewolkt
Zicht: meer dan 10 km
Bewolking: Licht bewolkt 1400 ft,
Gedeeltelijk bewolkt 1700 ft
EHGG 181125Z AUTO 20009KT 160V240 9999 FEW014 SCT017 18/15 Q1003 TEMPO 7000 RADZ
EHGR - Gilze-Rijen Rnla, Netherlands
Afstand tot: Z 128 km
Gewijzigd: 18-Aug-2019 13:25
Grotendeels bewolkt  
Grotendeels bewolkt  
   Wind: ZW 7.4 km/h
Wind: ZW 7.4 km/h
Temperatuur: 17°C
Dauwpunt: 15°C
Vochtigheid: 88%
Barometer: 1004 hPa
Bewolking: Grotendeels bewolkt
Zicht: meer dan 10 km
Bewolking: Gedeeltelijk bewolkt 800 ft,
Grotendeels bewolkt 1000 ft,
Grotendeels bewolkt 1300 ft
EHGR 181125Z AUTO 23004KT 150V270 9999 SCT008 BKN010 BKN013 17/15 Q1004 GRN
EHSA - Euro Platform, Netherlands
Afstand tot: ZW 130 km
Gewijzigd: 18-Aug-2019 13:25
  
  
   Wind: ZW 27.8 km/h
Wind: ZW 27.8 km/h
Temperatuur: 17°C
Dauwpunt: 13°C
Vochtigheid: 77%
Barometer: 1004 hPa
Zicht: meer dan 10 km
EHSA 181125Z AUTO 22015KT 9999 ///////// 17/13 Q1004 W17/H8
EHVK - Volkel Rnlafb, Netherlands
Afstand tot: ZZO 135 km
Gewijzigd: 18-Aug-2019 13:33
Grotendeels bewolkt  
Grotendeels bewolkt  
   Wind: ZW 7.4 km/h
Wind: ZW 7.4 km/h
Temperatuur: 17°C
Dauwpunt: 15°C
Vochtigheid: 88%
Barometer: 1004 hPa
Bewolking: Grotendeels bewolkt
Zicht: meer dan 10 km
Bewolking: Gedeeltelijk bewolkt 700 ft,
Grotendeels bewolkt 800 ft,
Grotendeels bewolkt 900 ft
EHVK 181133Z AUTO 22004KT 160V250 9999 SCT007 BKN008 BKN009 17/15 Q1004 GRN
EHWO - Woensdrecht Rnla, Netherlands
Afstand tot: ZZW 144 km
Gewijzigd: 18-Aug-2019 13:30
Grotendeels bewolkt  
Grotendeels bewolkt  
   Wind: WZW 13 km/h
Wind: WZW 13 km/h
Temperatuur: 17°C
Dauwpunt: 15°C
Vochtigheid: 88%
Barometer: 1005 hPa
Bewolking: Grotendeels bewolkt
Zicht: meer dan 10 km
Bewolking: Gedeeltelijk bewolkt 1000 ft,
Gedeeltelijk bewolkt 1300 ft,
Grotendeels bewolkt 1500 ft
EHWO 181130Z AUTO 24007KT 210V280 9999 SCT010 SCT013 BKN015 17/15 Q1005 GRN
EHEH - Eindhoven Rnlafb, Netherlands
Afstand tot: ZZO 146 km
Gewijzigd: 18-Aug-2019 13:30
Bewolking  
Bewolking  
   Wind: Zuiden 7.4 km/h
Wind: Zuiden 7.4 km/h
Temperatuur: 17°C
Dauwpunt: 15°C
Vochtigheid: 88%
Barometer: 1005 hPa
Bewolking: Bewolking
Zicht: meer dan 10 km
Bewolking: Licht bewolkt 600 ft,
Gedeeltelijk bewolkt 700 ft,
Bewolking 2400 ft
EHEH 181130Z AUTO 19004KT 150V230 9999 FEW006 SCT007 OVC024 17/15 Q1005 GRN 21005KT 9999 FEW008 SCT012 OVC025 BECMG FEW012 OVC030
EDLV - Niederrhein, Germany
Afstand tot: ZO 154 km
Gewijzigd: 18-Aug-2019 13:20
Grotendeels bewolkt  
Grotendeels bewolkt  
   Wind: varieert 3.7 km/h
Wind: varieert 3.7 km/h
Temperatuur: 16°C
Dauwpunt: 15°C
Vochtigheid: 94%
Barometer: 1004 hPa
Bewolking: Grotendeels bewolkt
Zicht: meer dan 10 km
Bewolking: Grotendeels bewolkt 700 ft
EDLV 181120Z VRB02KT 9999 BKN007 16/15 Q1004
 

Script ontwikkeld door  Saratoga-weather.org Aangepast voor de template door  Weerstation Leuven

U vindt ons ook hier:

Vereniging voor Weerkunde en Klimatologie

Het Weer Aktueel

WOW Nederland KNMI

UK Metoffice

European Weather Network

WeatherCloud

Weather Underground

Benelux Weer Netwerk

AWEKAS

WeatherlinkIP

Citizen Weather Observer Program (CWOP)

HAMweather, WeatherForYou, PWS Weather

        

Apparatuur in gebruik:

Weerstation
Davis - Vantage Veu

Weerprogramma
Meteobridge

Weercomputer
Carambola2 - MeteroBridge Pro (black)

Webleverancier
1Eurohosting

Hardwareleverancier 1
Uurwerk- & Meteospecialist Vlasma

Hardwareleverancier 2
Weerhuisje

Davis - Vantage Veu

Meteobridge

Carambola2 - MeteroBridge Pro (black)

1Eurohosting

Uurwerk- & Meteospecialist Vlasma

Weerhuisje


Alles over het weer rondom het weerstation van Meteo Oudkarspel, vind je hier. Dus alles onder 1 dak.

Everything about the weather around the Meteo Oudkarspel weather station can be found here. So everything under one roof..

Dus kom regelmatig terug, So come back regularly.


# #---------------------- version history # 3.20 2015-10-12 release 2.8b version